Time;durP1;ratioP1;P1;durP2;ratioP2;P2;SDS_P1;SDS_P2;PMS_P1;PMS_P2;Temp;Humidity;BMP_temperature;BMP_pressure;BME280_temperature;BME280_humidity;BME280_pressure;Samples;Min_cycle;Max_cycle;Signal;HPM_P1;HPM_P2
2021/12/23 00:00:15;;;;;;;17.58;10.95;;;;;;;4.51;56.88;101653.53;5073149;28;20477;-61
2021/12/23 00:02:44;;;;;;;17.73;10.15;;;;;;;4.53;57.02;101650.72;5068455;28;20049;-60
2021/12/23 00:05:12;;;;;;;16.58;10.70;;;;;;;4.52;57.35;101646.41;5063982;28;20455;-60
2021/12/23 00:07:40;;;;;;;18.50;10.73;;;;;;;4.49;56.83;101634.25;5067716;28;20084;-60
2021/12/23 00:10:09;;;;;;;16.77;10.85;;;;;;;4.49;57.27;101620.09;5072523;28;20051;-60
2021/12/23 00:12:39;;;;;;;15.68;9.60;;;;;;;4.49;57.60;101618.28;5066870;28;20049;-60
2021/12/23 00:15:17;;;;;;;15.02;10.32;;;;;;;4.50;56.75;101609.28;5065359;28;20041;-60
2021/12/23 00:17:59;;;;;;;19.15;10.10;;;;;;;4.52;57.51;101607.31;5054332;28;20048;-61
2021/12/23 00:23:26;;;;;;;18.45;10.23;;;;;;;4.54;56.45;101607.13;5067427;28;20094;-60
2021/12/23 00:25:58;;;;;;;15.07;10.07;;;;;;;4.50;57.16;101601.31;5071441;28;20080;-60
2021/12/23 00:28:25;;;;;;;14.93;9.80;;;;;;;4.47;56.94;101585.66;5066416;28;20118;-60
2021/12/23 00:30:53;;;;;;;16.35;9.85;;;;;;;4.50;57.30;101597.81;5069979;28;20045;-60
2021/12/23 00:33:23;;;;;;;17.17;9.98;;;;;;;4.49;57.15;101590.81;5066830;28;20084;-60
2021/12/23 00:35:53;;;;;;;15.27;10.32;;;;;;;4.52;56.74;101582.50;5067297;28;20083;-60
2021/12/23 00:38:26;;;;;;;17.58;10.27;;;;;;;4.48;56.89;101567.88;5065203;28;20045;-60
2021/12/23 00:40:54;;;;;;;15.13;9.43;;;;;;;4.48;56.72;101552.72;5065461;28;20080;-60
2021/12/23 00:43:22;;;;;;;14.23;9.95;;;;;;;4.48;57.26;101559.88;5070417;28;20059;-60
2021/12/23 00:45:51;;;;;;;18.08;10.82;;;;;;;4.49;57.29;101550.91;5064521;28;20049;-60
2021/12/23 00:48:19;;;;;;;13.73;9.98;;;;;;;4.50;57.47;101563.22;5062089;28;20076;-60
2021/12/23 00:50:48;;;;;;;14.50;9.70;;;;;;;4.47;57.39;101561.72;5062970;28;20057;-60
2021/12/23 00:53:19;;;;;;;15.65;9.98;;;;;;;4.46;56.78;101546.75;5058710;28;20055;-60
2021/12/23 00:55:49;;;;;;;17.15;9.95;;;;;;;4.46;57.14;101538.75;5078470;28;20048;-59
2021/12/23 00:58:17;;;;;;;17.00;9.55;;;;;;;4.47;57.59;101537.75;5065780;28;20083;-59
2021/12/23 01:00:46;;;;;;;17.25;10.32;;;;;;;4.46;57.49;101540.59;5063485;28;20103;-60
2021/12/23 01:03:15;;;;;;;16.67;10.23;;;;;;;4.48;57.06;101538.59;5071345;28;20060;-60
2021/12/23 01:05:43;;;;;;;17.23;9.60;;;;;;;4.45;56.96;101541.59;5067248;28;20055;-60
2021/12/23 01:08:12;;;;;;;15.63;9.02;;;;;;;4.50;56.44;101563.22;5061924;28;20064;-60
2021/12/23 01:10:40;;;;;;;14.70;10.00;;;;;;;4.48;57.34;101567.88;5062063;28;20052;-60
2021/12/23 01:13:13;;;;;;;17.02;10.10;;;;;;;4.46;57.17;101567.19;5061974;28;20080;-59
2021/12/23 01:18:37;;;;;;;14.77;10.00;;;;;;;4.45;56.57;101555.72;5051852;28;20056;-60
2021/12/23 01:21:16;;;;;;;17.85;11.18;;;;;;;4.44;56.41;101562.03;5065208;28;20069;-60
2021/12/23 01:23:50;;;;;;;15.25;10.48;;;;;;;4.44;57.13;101555.88;5054035;28;20033;-60
2021/12/23 01:26:20;;;;;;;16.05;10.20;;;;;;;4.44;56.35;101546.06;5069574;28;20072;-60
2021/12/23 01:28:50;;;;;;;16.98;10.60;;;;;;;4.46;56.70;101546.75;5068583;28;20064;-60
2021/12/23 01:31:18;;;;;;;16.65;10.57;;;;;;;4.46;57.04;101545.91;5064428;28;20076;-60
2021/12/23 01:33:46;;;;;;;13.30;9.48;;;;;;;4.46;57.19;101551.22;5066360;28;20079;-60
2021/12/23 01:36:15;;;;;;;14.32;9.02;;;;;;;4.43;57.09;101559.53;5072784;28;20048;-60
2021/12/23 01:38:44;;;;;;;15.73;10.57;;;;;;;4.42;56.26;101549.91;5064597;28;20041;-60
2021/12/23 01:41:13;;;;;;;15.93;10.65;;;;;;;4.41;56.71;101538.41;5071504;28;20076;-60
2021/12/23 01:43:41;;;;;;;18.92;11.10;;;;;;;4.42;56.93;101532.09;5068374;28;20071;-60
2021/12/23 01:46:14;;;;;;;16.05;10.25;;;;;;;4.41;56.95;101529.59;5072325;28;20045;-61
2021/12/23 01:48:42;;;;;;;16.00;10.90;;;;;;;4.42;57.26;101531.25;5066950;28;20056;-60
2021/12/23 01:51:10;;;;;;;18.02;10.63;;;;;;;4.39;56.69;101523.63;5066535;28;20080;-61
2021/12/23 01:53:38;;;;;;;17.52;9.85;;;;;;;4.38;56.95;101514.78;5062601;28;20079;-61
2021/12/23 01:56:05;;;;;;;16.98;11.13;;;;;;;4.37;57.22;101518.44;5065945;28;20071;-60
2021/12/23 01:58:38;;;;;;;18.55;10.15;;;;;;;4.39;57.32;101511.13;5062620;28;20049;-60
2021/12/23 02:01:06;;;;;;;19.17;9.88;;;;;;;4.38;56.37;101508.63;5067679;28;20091;-60
2021/12/23 02:03:35;;;;;;;15.95;10.48;;;;;;;4.39;56.60;101499.66;5064471;28;20053;-61
2021/12/23 02:06:04;;;;;;;16.73;10.10;;;;;;;4.37;57.35;101507.81;5065051;28;20041;-60
2021/12/23 02:08:32;;;;;;;15.68;9.90;;;;;;;4.38;56.63;101496.16;5066800;28;20113;-60
2021/12/23 02:11:01;;;;;;;17.55;10.90;;;;;;;4.40;56.71;101499.50;5063773;28;20049;-60
2021/12/23 02:13:29;;;;;;;16.38;10.43;;;;;;;4.41;57.03;101498.50;5081880;28;20056;-60
2021/12/23 02:15:59;;;;;;;21.83;10.95;;;;;;;4.41;57.41;101487.03;5070700;28;20040;-60
2021/12/23 02:18:27;;;;;;;17.42;11.15;;;;;;;4.42;57.25;101488.69;5075121;28;20053;-60
2021/12/23 02:20:57;;;;;;;17.05;10.35;;;;;;;4.42;56.99;101478.88;5067857;28;20046;-60
2021/12/23 02:23:25;;;;;;;13.43;9.38;;;;;;;4.43;56.54;101480.53;5077960;28;20086;-60
2021/12/23 02:25:53;;;;;;;22.00;11.52;;;;;;;4.42;56.54;101484.19;5076228;28;20063;-60
2021/12/23 02:28:22;;;;;;;15.82;10.55;;;;;;;4.42;56.86;101473.56;5084792;28;20090;-60
2021/12/23 02:30:52;;;;;;;16.95;10.13;;;;;;;4.42;57.11;101486.03;5072858;28;20052;-60
2021/12/23 02:33:21;;;;;;;16.60;10.43;;;;;;;4.43;56.29;101483.19;5065974;28;20052;-60
2021/12/23 02:35:49;;;;;;;14.38;9.23;;;;;;;4.38;56.35;101466.91;5068476;28;20163;-60
2021/12/23 02:38:18;;;;;;;16.77;11.23;;;;;;;4.42;56.44;101476.22;5070511;28;20057;-60
2021/12/23 02:40:46;;;;;;;17.10;10.20;;;;;;;4.42;56.63;101465.56;5061574;28;20072;-60
2021/12/23 02:43:16;;;;;;;16.35;10.27;;;;;;;4.40;57.07;101480.03;5065519;28;20053;-60
2021/12/23 02:45:46;;;;;;;15.82;9.88;;;;;;;4.38;56.82;101474.06;5070089;28;20063;-60
2021/12/23 02:48:16;;;;;;;17.38;10.40;;;;;;;4.37;56.64;101481.19;5065963;28;20053;-60
2021/12/23 02:50:46;;;;;;;19.77;11.15;;;;;;;4.37;56.35;101470.56;5064351;28;20069;-61
2021/12/23 02:53:14;;;;;;;19.48;10.90;;;;;;;4.38;56.33;101474.88;5064156;28;20088;-61
2021/12/23 02:55:44;;;;;;;18.33;10.23;;;;;;;4.39;56.71;101473.88;5064714;28;20069;-60
2021/12/23 02:58:11;;;;;;;15.52;10.40;;;;;;;4.36;56.69;101454.75;5070559;28;20040;-60
2021/12/23 03:00:41;;;;;;;17.52;9.95;;;;;;;4.34;56.57;101452.25;5067693;28;20096;-61
2021/12/23 03:03:10;;;;;;;16.48;10.77;;;;;;;4.34;57.16;101446.94;5064972;28;20044;-60
2021/12/23 03:05:37;;;;;;;14.35;9.82;;;;;;;4.33;56.73;101447.09;5066695;28;20155;-60
2021/12/23 03:08:05;;;;;;;18.42;10.07;;;;;;;4.32;56.45;101456.91;5067202;28;20041;-60
2021/12/23 03:10:33;;;;;;;16.05;10.68;;;;;;;4.30;56.98;101450.94;5072221;28;20462;-60
2021/12/23 03:13:02;;;;;;;21.38;10.50;;;;;;;4.29;56.61;101443.94;5067569;28;20276;-60
2021/12/23 03:15:30;;;;;;;16.70;10.27;;;;;;;4.29;57.06;101443.94;5071690;28;20048;-60
2021/12/23 03:17:57;;;;;;;16.25;10.27;;;;;;;4.30;56.79;101437.63;5068392;28;20076;-60
2021/12/23 03:20:25;;;;;;;18.10;10.15;;;;;;;4.28;56.66;101428.97;5067498;28;20073;-60
2021/12/23 03:22:53;;;;;;;19.25;11.45;;;;;;;4.28;56.34;101430.81;5064507;28;20045;-60
2021/12/23 03:25:20;;;;;;;18.00;10.88;;;;;;;4.27;56.85;101435.31;5066012;28;20077;-60
2021/12/23 03:27:48;;;;;;;17.00;11.13;;;;;;;4.28;57.15;101431.63;5068812;28;20055;-60
2021/12/23 03:30:17;;;;;;;17.55;11.27;;;;;;;4.29;56.44;101422.66;5065351;28;20123;-60
2021/12/23 03:32:45;;;;;;;15.63;10.32;;;;;;;4.26;56.77;101417.69;5069853;28;20079;-60
2021/12/23 03:35:13;;;;;;;18.27;10.73;;;;;;;4.25;56.68;101422.16;5071616;28;20076;-60
2021/12/23 03:37:41;;;;;;;16.23;11.20;;;;;;;4.25;57.28;101416.00;5065554;28;20055;-60
2021/12/23 03:40:09;;;;;;;16.67;10.90;;;;;;;4.26;57.28;101412.34;5075922;28;20048;-60
2021/12/23 03:42:39;;;;;;;18.90;11.30;;;;;;;4.26;56.44;101407.03;5060049;28;20092;-60
2021/12/23 03:45:08;;;;;;;18.52;11.25;;;;;;;4.27;56.55;101395.41;5065665;28;20299;-60
2021/12/23 03:47:38;;;;;;;18.10;10.40;;;;;;;4.19;56.76;101376.78;5073663;28;20132;-60
2021/12/23 03:50:08;;;;;;;18.67;11.20;;;;;;;4.24;57.53;101379.75;5068332;28;20041;-60
2021/12/23 03:52:36;;;;;;;15.30;10.25;;;;;;;4.23;57.32;101370.94;5077193;28;20075;-60
2021/12/23 03:55:05;;;;;;;17.42;10.65;;;;;;;4.24;57.15;101359.31;5071655;28;20040;-60
2021/12/23 03:57:32;;;;;;;18.58;11.40;;;;;;;4.24;57.34;101354.00;5069606;28;20132;-60
2021/12/23 04:00:00;;;;;;;16.92;10.70;;;;;;;4.22;56.79;101356.00;5064806;28;20048;-60
2021/12/23 04:02:28;;;;;;;16.55;10.70;;;;;;;4.24;56.53;101355.81;5064438;28;20049;-60
2021/12/23 04:04:57;;;;;;;17.60;10.93;;;;;;;4.22;57.19;101342.69;5070741;28;20041;-60
2021/12/23 04:07:25;;;;;;;17.35;10.52;;;;;;;4.24;56.53;101347.84;5061078;28;20125;-60
2021/12/23 04:09:53;;;;;;;15.23;10.60;;;;;;;4.22;56.61;101341.84;5062719;28;20081;-60
2021/12/23 04:12:21;;;;;;;16.27;10.45;;;;;;;4.21;57.46;101340.19;5067470;28;20056;-60
2021/12/23 04:14:49;;;;;;;17.42;10.80;;;;;;;4.22;57.00;101348.00;5069083;28;20045;-60
2021/12/23 04:17:17;;;;;;;18.10;10.98;;;;;;;4.24;57.15;101353.16;5064624;28;20485;-60
2021/12/23 04:19:46;;;;;;;18.90;11.60;;;;;;;4.23;56.89;101339.03;5076086;28;20098;-60
2021/12/23 04:22:16;;;;;;;19.45;11.25;;;;;;;4.22;57.23;101328.56;5070729;28;20057;-60
2021/12/23 04:24:44;;;;;;;19.00;11.80;;;;;;;4.22;57.07;101329.38;5075176;28;20045;-60
2021/12/23 04:27:12;;;;;;;19.50;11.73;;;;;;;4.22;57.55;101310.75;5065889;28;20044;-60
2021/12/23 04:29:39;;;;;;;21.25;11.18;;;;;;;4.23;57.60;101320.41;5068549;28;20053;-60
2021/12/23 04:32:08;;;;;;;17.35;11.25;;;;;;;4.23;57.41;101322.22;5058976;28;20045;-60
2021/12/23 04:34:36;;;;;;;19.98;11.95;;;;;;;4.23;56.74;101340.84;5064908;28;20051;-60
2021/12/23 04:37:04;;;;;;;19.77;12.07;;;;;;;4.23;56.75;101338.19;5064130;28;20105;-60
2021/12/23 04:39:33;;;;;;;19.02;10.85;;;;;;;4.20;57.22;101350.00;5076903;28;20072;-60
2021/12/23 04:42:01;;;;;;;19.35;11.43;;;;;;;4.21;57.04;101345.50;5069029;28;20136;-59
2021/12/23 04:44:28;;;;;;;20.17;11.98;;;;;;;4.20;57.22;101327.91;5072171;28;20162;-60
2021/12/23 04:46:56;;;;;;;19.98;11.82;;;;;;;4.20;56.78;101309.28;5068706;28;20108;-60
2021/12/23 04:49:24;;;;;;;19.90;12.60;;;;;;;4.19;56.85;101299.63;5077954;28;20049;-60
2021/12/23 04:51:51;;;;;;;17.33;11.82;;;;;;;4.17;57.51;101310.44;5067186;28;20518;-60
2021/12/23 04:54:19;;;;;;;18.40;11.77;;;;;;;4.18;57.02;101303.28;5075859;28;20080;-60
2021/12/23 04:56:48;;;;;;;23.40;11.57;;;;;;;4.20;56.95;101288.00;5069094;28;20541;-60
2021/12/23 04:59:17;;;;;;;21.13;12.40;;;;;;;4.19;57.25;101267.72;5070020;28;20083;-60
2021/12/23 05:01:44;;;;;;;20.73;11.82;;;;;;;4.18;56.95;101263.38;5077547;28;20052;-60
2021/12/23 05:04:13;;;;;;;20.33;11.45;;;;;;;4.20;57.14;101267.53;5075228;28;20048;-60
2021/12/23 05:06:40;;;;;;;19.58;13.25;;;;;;;4.21;56.83;101271.03;5071781;28;20068;-60
2021/12/23 05:09:08;;;;;;;18.92;11.95;;;;;;;4.19;57.49;101270.38;5076930;28;20072;-59
2021/12/23 05:11:38;;;;;;;19.50;12.43;;;;;;;4.21;57.57;101273.69;5061443;28;20485;-59
2021/12/23 05:14:07;;;;;;;19.83;11.77;;;;;;;4.20;57.38;101261.38;5055821;28;20099;-60
2021/12/23 05:16:35;;;;;;;20.35;12.27;;;;;;;4.19;57.32;101267.72;5063045;28;20069;-60
2021/12/23 05:19:02;;;;;;;19.25;12.25;;;;;;;4.18;56.98;101266.03;5062347;28;20080;-60
2021/12/23 05:21:31;;;;;;;19.95;13.60;;;;;;;4.19;56.88;101268.53;5070409;28;20066;-60
2021/12/23 05:23:58;;;;;;;21.52;13.82;;;;;;;4.17;57.82;101267.88;5065285;28;20071;-60
2021/12/23 05:26:26;;;;;;;21.70;13.57;;;;;;;4.18;57.29;101269.53;5066279;28;20036;-60
2021/12/23 05:28:54;;;;;;;23.77;14.60;;;;;;;4.17;57.12;101249.25;5069728;28;20086;-60
2021/12/23 05:31:23;;;;;;;20.20;12.93;;;;;;;4.18;56.78;101247.44;5072504;28;20052;-59
2021/12/23 05:33:51;;;;;;;21.42;13.07;;;;;;;4.17;57.12;101253.75;5068216;28;20108;-60
2021/12/23 05:36:19;;;;;;;20.08;12.70;;;;;;;4.20;57.30;101248.91;5066973;28;20049;-60
2021/12/23 05:38:46;;;;;;;22.55;13.90;;;;;;;4.21;57.48;101257.72;5057765;28;20109;-60
2021/12/23 05:41:14;;;;;;;19.75;13.02;;;;;;;4.20;56.66;101251.56;5068799;28;20091;-60
2021/12/23 05:43:42;;;;;;;26.30;13.73;;;;;;;4.19;57.05;101241.09;5070084;28;20060;-60
2021/12/23 05:46:10;;;;;;;21.63;13.40;;;;;;;4.18;57.82;101234.97;5075003;28;20064;-60
2021/12/23 05:48:39;;;;;;;25.23;15.30;;;;;;;4.17;56.93;101238.63;5068380;28;20183;-60
2021/12/23 05:51:07;;;;;;;21.50;13.85;;;;;;;4.19;57.40;101239.28;5072538;28;20049;-60
2021/12/23 05:53:34;;;;;;;21.08;14.68;;;;;;;4.19;57.52;101252.56;5067347;28;20260;-60
2021/12/23 05:56:02;;;;;;;21.30;13.68;;;;;;;4.19;57.06;101238.44;5065520;28;20068;-60
2021/12/23 05:58:30;;;;;;;22.20;13.68;;;;;;;4.19;57.21;101235.78;5062003;28;20084;-61
2021/12/23 06:00:58;;;;;;;22.88;14.35;;;;;;;4.18;57.81;101228.81;5063184;28;20049;-61
2021/12/23 06:03:26;;;;;;;22.73;13.57;;;;;;;4.21;57.33;101216.00;5070158;28;20055;-59
2021/12/23 06:05:55;;;;;;;24.50;14.52;;;;;;;4.35;57.13;101218.94;5069268;28;20065;-60
2021/12/23 06:08:23;;;;;;;22.88;13.77;;;;;;;4.46;56.63;101226.56;5065485;28;20134;-60
2021/12/23 06:10:50;;;;;;;25.13;14.43;;;;;;;4.50;56.50;101234.00;5075355;28;20092;-63
2021/12/23 06:13:18;;;;;;;24.25;15.80;;;;;;;4.53;55.95;101251.47;5062374;28;20172;-60
2021/12/23 06:15:46;;;;;;;22.92;15.48;;;;;;;4.48;56.16;101241.34;5058851;28;20076;-60
2021/12/23 06:18:14;;;;;;;25.50;14.30;;;;;;;4.56;55.77;101240.47;5057842;28;20049;-60
2021/12/23 06:20:41;;;;;;;29.83;16.48;;;;;;;4.65;55.60;101236.78;5064713;28;20075;-61
2021/12/23 06:23:11;;;;;;;23.90;14.45;;;;;;;4.80;55.76;101235.03;5062465;28;20113;-60
2021/12/23 06:25:39;;;;;;;24.63;13.45;;;;;;;4.92;55.30;101224.00;5068055;28;20053;-61
2021/12/23 06:28:12;;;;;;;22.90;14.05;;;;;;;5.07;54.43;101207.09;5066269;28;20048;-61
2021/12/23 06:30:39;;;;;;;22.60;13.93;;;;;;;5.19;54.76;101208.31;5066683;28;20045;-60
2021/12/23 06:33:07;;;;;;;22.23;14.02;;;;;;;5.32;54.43;101197.03;5061465;28;20041;-59
2021/12/23 06:35:38;;;;;;;23.15;14.65;;;;;;;5.45;54.07;101197.25;5082139;28;20048;-60
2021/12/23 06:38:09;;;;;;;24.17;14.73;;;;;;;5.56;53.55;101183.50;5080535;28;20528;-57
2021/12/23 06:40:39;;;;;;;23.17;14.18;;;;;;;5.65;53.30;101176.25;5066082;28;20151;-60
2021/12/23 06:43:07;;;;;;;22.52;13.95;;;;;;;5.79;52.90;101183.44;5061560;28;20068;-60
2021/12/23 06:45:34;;;;;;;24.52;14.70;;;;;;;5.83;52.88;101182.06;5073584;28;20544;-59
2021/12/23 06:48:02;;;;;;;23.92;13.77;;;;;;;5.86;53.07;101189.72;5072094;28;20041;-60
2021/12/23 06:50:30;;;;;;;20.42;13.10;;;;;;;5.89;52.73;101188.53;5066891;28;20053;-60
2021/12/23 06:52:59;;;;;;;19.15;13.02;;;;;;;5.83;52.63;101181.25;5067110;28;20045;-60
2021/12/23 06:55:26;;;;;;;25.25;14.57;;;;;;;5.69;52.99;101185.53;5083067;28;20120;-60
2021/12/23 06:57:57;;;;;;;24.15;14.65;;;;;;;5.53;53.48;101196.38;5074914;28;20590;-60
2021/12/23 07:00:27;;;;;;;23.75;14.65;;;;;;;5.39;54.29;101187.31;5065042;28;20055;-59
2021/12/23 07:02:56;;;;;;;22.25;13.98;;;;;;;5.27;54.46;101179.94;5054654;28;20163;-59
2021/12/23 07:05:24;;;;;;;24.45;15.10;;;;;;;5.17;54.93;101182.88;5059911;28;20048;-59
2021/12/23 07:07:55;;;;;;;23.45;14.77;;;;;;;5.07;55.40;101183.09;5062615;28;20398;-59
2021/12/23 07:10:26;;;;;;;25.63;15.48;;;;;;;5.01;55.64;101182.97;5069872;28;20091;-58
2021/12/23 07:12:57;;;;;;;23.88;14.23;;;;;;;4.98;55.58;101191.31;5063769;28;20045;-59
2021/12/23 07:15:25;;;;;;;24.73;15.65;;;;;;;4.93;55.77;101201.69;5069358;28;20052;-60
2021/12/23 07:17:54;;;;;;;25.65;14.98;;;;;;;4.88;55.30;101195.06;5063556;28;20051;-59
2021/12/23 07:20:24;;;;;;;24.85;14.60;;;;;;;4.84;55.95;101184.94;5060405;28;20049;-60
2021/12/23 07:22:52;;;;;;;26.33;15.23;;;;;;;4.80;55.97;101178.28;5065141;28;20049;-59
2021/12/23 07:25:20;;;;;;;22.45;14.02;;;;;;;4.73;56.39;101166.69;5067172;28;20064;-59
2021/12/23 07:27:49;;;;;;;25.17;14.77;;;;;;;4.75;56.76;101172.66;5070592;28;20071;-59
2021/12/23 07:30:20;;;;;;;23.88;14.70;;;;;;;4.73;56.24;101180.00;5062652;28;20152;-60
2021/12/23 07:32:48;;;;;;;23.52;14.23;;;;;;;4.68;56.78;101179.69;5063695;28;20076;-59
2021/12/23 07:35:16;;;;;;;23.70;14.05;;;;;;;4.64;56.68;101165.09;5066481;28;20483;-59
2021/12/23 07:37:45;;;;;;;24.48;14.95;;;;;;;4.67;56.78;101165.56;5067901;28;20048;-59
2021/12/23 07:40:16;;;;;;;23.77;14.65;;;;;;;4.66;56.45;101182.53;5065306;28;20085;-59
2021/12/23 07:42:53;;;;;;;21.30;13.93;;;;;;;4.64;56.84;101181.06;5068682;28;20075;-59
2021/12/23 07:45:23;;;;;;;25.95;15.15;;;;;;;4.59;57.08;101181.56;5060902;28;20073;-60
2021/12/23 07:47:51;;;;;;;26.90;14.38;;;;;;;4.58;56.63;101190.56;5063194;28;20472;-59
2021/12/23 07:50:19;;;;;;;22.70;14.65;;;;;;;4.57;57.42;101181.75;5063061;28;20097;-58
2021/12/23 07:52:47;;;;;;;29.00;15.60;;;;;;;4.56;57.14;101177.44;5066869;28;20049;-61
2021/12/23 07:55:14;;;;;;;24.38;15.23;;;;;;;4.56;57.38;101187.25;5063357;28;20069;-59
2021/12/23 07:57:42;;;;;;;24.13;15.43;;;;;;;4.56;57.48;101187.25;5066048;28;20088;-62
2021/12/23 08:00:12;;;;;;;25.42;14.90;;;;;;;4.62;56.76;101185.72;5070425;28;20087;-62
2021/12/23 08:02:41;;;;;;;26.35;15.45;;;;;;;4.52;56.72;101172.63;5068733;28;20060;-63
2021/12/23 08:05:10;;;;;;;25.85;15.30;;;;;;;4.66;57.18;101179.03;5062354;28;20108;-61
2021/12/23 08:07:38;;;;;;;27.17;15.82;;;;;;;4.63;57.20;101172.25;5072353;28;20045;-61
2021/12/23 08:10:07;;;;;;;23.45;14.00;;;;;;;4.65;56.65;101164.06;5062096;28;20049;-64
2021/12/23 08:12:35;;;;;;;26.92;15.88;;;;;;;4.61;57.56;101163.59;5061683;28;20052;-63
2021/12/23 08:15:04;;;;;;;28.02;14.57;;;;;;;4.58;57.22;101159.44;5067329;28;20045;-62
2021/12/23 08:17:35;;;;;;;25.13;14.73;;;;;;;4.57;56.93;101160.47;5066598;28;20051;-61
2021/12/23 08:20:09;;;;;;;25.20;14.57;;;;;;;4.58;57.48;101161.28;5070832;28;20120;-63
2021/12/23 08:22:36;;;;;;;27.52;14.68;;;;;;;4.56;56.95;101168.63;5070945;28;20049;-63
2021/12/23 08:25:05;;;;;;;27.15;15.23;;;;;;;4.55;57.56;101174.94;5070439;28;20122;-63
2021/12/23 08:27:34;;;;;;;26.20;15.25;;;;;;;4.59;56.91;101162.94;5063426;28;20391;-62
2021/12/23 08:30:05;;;;;;;26.17;15.27;;;;;;;4.67;57.52;101156.75;5065826;28;20056;-63
2021/12/23 08:32:32;;;;;;;25.92;15.55;;;;;;;4.68;56.74;101150.41;5066044;28;20367;-63
2021/12/23 08:35:00;;;;;;;26.80;15.05;;;;;;;4.67;57.26;101146.94;5068796;28;20048;-61
2021/12/23 08:37:30;;;;;;;25.05;14.23;;;;;;;4.72;57.22;101143.72;5063925;28;20044;-59
2021/12/23 08:39:57;;;;;;;25.85;16.98;;;;;;;4.71;56.97;101139.41;5063409;28;20068;-62
2021/12/23 08:42:25;;;;;;;30.35;15.60;;;;;;;4.71;57.06;101139.41;5062283;28;20076;-63
2021/12/23 08:44:53;;;;;;;26.67;15.57;;;;;;;4.68;57.25;101129.13;5067366;28;20053;-62
2021/12/23 08:47:21;;;;;;;26.55;16.02;;;;;;;4.71;57.34;101126.94;5070508;28;20045;-62
2021/12/23 08:49:48;;;;;;;24.73;15.00;;;;;;;4.87;56.21;101120.66;5067618;28;20060;-63
2021/12/23 08:52:16;;;;;;;22.67;14.48;;;;;;;4.98;56.38;101122.91;5063661;28;20060;-63
2021/12/23 08:54:45;;;;;;;23.35;14.27;;;;;;;5.11;56.29;101133.78;5068370;28;20087;-62
2021/12/23 08:57:13;;;;;;;27.17;16.08;;;;;;;5.26;55.88;101124.97;5064361;28;20056;-63
2021/12/23 08:59:41;;;;;;;24.10;14.82;;;;;;;5.38;55.14;101115.53;5066981;28;20080;-62
2021/12/23 09:02:09;;;;;;;26.17;14.95;;;;;;;5.50;55.09;101112.25;5065669;28;20080;-62
2021/12/23 09:04:38;;;;;;;23.08;14.27;;;;;;;5.65;54.76;101114.09;5068389;28;20063;-62
2021/12/23 09:07:07;;;;;;;24.92;15.32;;;;;;;5.76;54.13;101122.47;5068402;28;20055;-63
2021/12/23 09:09:36;;;;;;;27.80;15.32;;;;;;;5.84;53.89;101113.56;5065417;28;20056;-62
2021/12/23 09:12:07;;;;;;;27.35;15.63;;;;;;;5.95;53.61;101117.63;5066978;28;20080;-76
2021/12/23 09:14:35;;;;;;;26.13;15.27;;;;;;;6.08;53.43;101109.81;5069397;28;20090;-62
2021/12/23 09:17:04;;;;;;;24.38;14.55;;;;;;;6.02;53.32;101111.38;5072659;28;20048;-70
2021/12/23 09:19:32;;;;;;;25.58;15.02;;;;;;;6.15;53.24;101108.88;5069958;28;20072;-61
2021/12/23 09:21:59;;;;;;;26.48;15.45;;;;;;;6.20;52.86;101114.47;5065082;28;20388;-60
2021/12/23 09:24:27;;;;;;;25.38;15.25;;;;;;;6.10;53.30;101107.78;5069352;28;20110;-62
2021/12/23 09:27:01;;;;;;;24.27;14.57;;;;;;;6.10;53.75;101099.78;5062883;28;20323;-62
2021/12/23 09:35:03;;;;;;;26.57;14.93;;;;;;;6.18;53.84;101103.16;5064741;28;20048;-62
2021/12/23 09:37:31;;;;;;;24.45;15.02;;;;;;;6.20;53.56;101093.13;5071726;28;20128;-61
2021/12/23 09:40:02;;;;;;;23.92;14.05;;;;;;;6.17;53.49;101104.16;5066021;28;20109;-62
2021/12/23 09:42:32;;;;;;;25.02;14.85;;;;;;;6.17;53.76;101098.84;5063485;28;20053;-63
2021/12/23 09:45:05;;;;;;;22.35;14.07;;;;;;;6.21;53.63;101096.63;5062386;28;20076;-63
2021/12/23 09:47:36;;;;;;;26.40;15.32;;;;;;;6.27;53.77;101090.53;5065330;28;20049;-63
2021/12/23 09:50:10;;;;;;;25.20;15.13;;;;;;;6.29;53.69;101085.84;5064776;28;20045;-63
2021/12/23 09:52:45;;;;;;;24.17;14.85;;;;;;;6.22;53.70;101092.09;5058444;28;20049;-63
2021/12/23 09:55:15;;;;;;;24.27;15.20;;;;;;;6.12;54.21;101079.88;5060771;28;20059;-62
2021/12/23 09:57:45;;;;;;;23.25;13.90;;;;;;;5.98;54.71;101087.91;5064077;28;20056;-63
2021/12/23 10:00:16;;;;;;;25.05;14.68;;;;;;;5.81;55.29;101084.59;5066140;28;20052;-62
2021/12/23 10:02:45;;;;;;;25.40;15.18;;;;;;;5.68;55.12;101079.91;5067921;28;20099;-63
2021/12/23 10:05:17;;;;;;;28.63;15.10;;;;;;;5.60;55.80;101074.66;5067430;28;20089;-62
2021/12/23 10:07:47;;;;;;;23.48;13.77;;;;;;;5.64;55.46;101073.28;5067084;28;20490;-63
2021/12/23 10:10:20;;;;;;;26.45;14.73;;;;;;;5.64;55.84;101065.28;5067300;28;20540;-63
2021/12/23 10:33:16;;;;;;;23.60;14.40;;;;;;;5.55;56.82;101047.72;5073104;28;20055;-63
2021/12/23 10:38:34;;;;;;;24.13;13.88;;;;;;;5.86;55.88;101048.34;5066271;28;20060;-64
2021/12/23 10:41:05;;;;;;;24.75;14.07;;;;;;;6.01;55.22;101024.34;5075656;28;20045;-64
2021/12/23 10:43:36;;;;;;;30.48;15.27;;;;;;;6.11;55.14;101013.38;5071193;28;20053;-64
2021/12/23 10:46:06;;;;;;;23.08;14.10;;;;;;;6.15;55.18;100999.47;5066285;28;20056;-64
2021/12/23 10:48:50;;;;;;;22.70;13.40;;;;;;;6.29;54.89;100988.94;5074785;28;20048;-64
2021/12/23 10:51:22;;;;;;;23.33;13.60;;;;;;;6.39;54.56;100974.25;5066007;28;20049;-69
2021/12/23 10:54:19;;;;;;;21.35;12.48;;;;;;;6.47;54.54;100979.44;5063619;28;20048;-65
2021/12/23 10:59:32;;;;;;;21.40;12.90;;;;;;;6.40;54.99;100957.22;5060994;28;20060;-66
2021/12/23 11:02:23;;;;;;;22.73;13.13;;;;;;;6.43;55.31;100964.84;5066251;28;20057;-66
2021/12/23 11:05:03;;;;;;;23.05;13.23;;;;;;;6.40;55.21;100964.41;5064804;28;20132;-66
2021/12/23 11:07:49;;;;;;;21.80;13.00;;;;;;;6.28;55.48;100974.75;5069771;28;20048;-66
2021/12/23 11:10:34;;;;;;;22.13;13.32;;;;;;;6.18;55.59;100959.06;5065559;28;20076;-66
2021/12/23 11:27:34;;;;;;;22.00;12.35;;;;;;;5.64;57.83;100925.81;5036147;28;20046;-64
2021/12/23 11:31:05;;;;;;;24.77;14.13;;;;;;;5.60;58.11;100914.69;5037279;28;20105;-65
2021/12/23 11:36:33;;;;;;;23.45;13.15;;;;;;;5.51;58.73;100911.31;4975965;28;20058;-64
2021/12/23 11:39:13;;;;;;;22.23;12.43;;;;;;;5.52;58.04;100904.97;4981208;28;20469;-64
2021/12/23 11:41:50;;;;;;;24.55;12.32;;;;;;;5.58;58.17;100884.75;4980864;28;20119;-65
2021/12/23 11:44:18;;;;;;;24.50;13.55;;;;;;;5.81;57.79;100885.41;4978734;28;20047;-64
2021/12/23 11:46:50;;;;;;;23.30;12.82;;;;;;;5.82;57.89;100881.72;4982597;28;20082;-65
2021/12/23 11:49:18;;;;;;;22.95;12.40;;;;;;;6.00;57.02;100883.97;4992750;28;20049;-65
2021/12/23 11:51:53;;;;;;;19.98;12.38;;;;;;;6.19;56.92;100869.97;5016625;28;20073;-65
2021/12/23 11:54:28;;;;;;;21.98;12.63;;;;;;;6.33;56.11;100867.41;5016431;28;20070;-65
2021/12/23 11:57:04;;;;;;;21.25;12.25;;;;;;;6.49;55.89;100865.28;5013358;28;20081;-65
2021/12/23 11:59:33;;;;;;;23.42;12.95;;;;;;;6.63;55.33;100863.53;5009903;28;20109;-65
2021/12/23 12:02:01;;;;;;;20.40;12.30;;;;;;;6.61;55.44;100849.56;5017752;28;20077;-65
2021/12/23 12:04:32;;;;;;;24.70;13.50;;;;;;;6.53;55.72;100847.84;5016030;28;20054;-65
2021/12/23 12:07:00;;;;;;;21.27;12.00;;;;;;;6.41;56.38;100853.94;5041505;28;20044;-65
2021/12/23 12:09:31;;;;;;;22.60;13.10;;;;;;;6.28;56.94;100843.16;5073229;28;20045;-65
2021/12/23 12:12:09;;;;;;;21.92;12.23;;;;;;;6.15;57.14;100844.69;5069193;28;20391;-65
2021/12/23 12:14:47;;;;;;;23.92;12.80;;;;;;;6.08;57.43;100849.16;5068598;28;20060;-65
2021/12/23 12:17:41;;;;;;;23.30;12.88;;;;;;;6.01;57.50;100850.13;5071739;28;20053;-65
2021/12/23 12:20:23;;;;;;;22.23;12.98;;;;;;;5.91;58.07;100854.94;5068231;28;20049;-65
2021/12/23 12:22:55;;;;;;;20.33;12.40;;;;;;;5.88;58.43;100848.13;5067476;28;20091;-66